createdAt,value
2023-03-30T00:02:34.795Z,99851.94
2023-03-30T00:05:42.986Z,99852.28
2023-03-30T00:08:44.716Z,99852.16
2023-03-30T00:11:47.894Z,99839.03
2023-03-30T00:14:51.988Z,99829.06
2023-03-30T00:17:58.642Z,99820.88
2023-03-30T00:21:05.239Z,99815.50
2023-03-30T00:24:07.544Z,99825.38
2023-03-30T00:27:09.295Z,99821.41
2023-03-30T00:30:13.462Z,99816.22
2023-03-30T00:33:15.766Z,99820.19
2023-03-30T00:36:21.112Z,99819.97
2023-03-30T00:39:23.243Z,99810.38
2023-03-30T00:42:25.645Z,99808.03
2023-03-30T00:45:28.834Z,99809.25
2023-03-30T00:48:37.320Z,99810.38
2023-03-30T00:51:43.126Z,99798.66
2023-03-30T00:54:46.954Z,99796.34
2023-03-30T00:57:51.290Z,99801.63
2023-03-30T01:00:56.735Z,99795.09
2023-03-30T01:04:02.480Z,99790.66
2023-03-30T01:07:13.998Z,99776.09
2023-03-30T01:10:16.342Z,99784.19
2023-03-30T01:13:19.860Z,99784.00
2023-03-30T01:16:30.348Z,99804.06
2023-03-30T01:19:58.701Z,99795.41
2023-03-30T01:23:20.054Z,99781.69
2023-03-30T01:26:39.826Z,99771.94
2023-03-30T01:29:57.798Z,99791.06
2023-03-30T01:33:37.256Z,99796.34
2023-03-30T01:36:55.242Z,99793.41
2023-03-30T01:40:06.084Z,99798.00
2023-03-30T01:43:18.821Z,99807.75
2023-03-30T01:46:30.872Z,99796.75
2023-03-30T01:49:44.816Z,99796.09
2023-03-30T01:52:53.905Z,99804.78
2023-03-30T01:56:02.880Z,99792.78
2023-03-30T01:59:09.942Z,99800.81
2023-03-30T02:02:16.928Z,99799.50
2023-03-30T02:05:19.752Z,99812.66
2023-03-30T02:08:27.201Z,99805.66
2023-03-30T02:11:31.877Z,99820.78
2023-03-30T02:14:36.448Z,99817.25
2023-03-30T02:17:38.552Z,99834.25
2023-03-30T02:20:40.565Z,99813.19
2023-03-30T02:23:47.878Z,99807.16
2023-03-30T02:26:53.101Z,99813.25
2023-03-30T02:29:56.340Z,99815.09
2023-03-30T02:32:58.296Z,99802.75
2023-03-30T02:36:13.572Z,99793.09
2023-03-30T02:39:29.669Z,99772.56
2023-03-30T02:42:48.891Z,99782.16
2023-03-30T02:45:58.041Z,99795.06
2023-03-30T02:49:13.098Z,99796.06
2023-03-30T02:52:40.797Z,99796.56
2023-03-30T02:55:56.038Z,99795.56
2023-03-30T02:59:19.382Z,99781.22
2023-03-30T03:02:26.675Z,99774.91
2023-03-30T03:05:43.391Z,99779.75
2023-03-30T03:08:48.092Z,99779.88
2023-03-30T03:11:56.268Z,99801.16
2023-03-30T03:15:02.488Z,99817.31
2023-03-30T03:18:06.255Z,99834.59
2023-03-30T03:21:14.532Z,99821.72
2023-03-30T03:24:17.652Z,99810.03
2023-03-30T03:27:57.891Z,99801.09
2023-03-30T03:31:09.023Z,99780.88
2023-03-30T03:34:11.640Z,99788.81
2023-03-30T03:37:29.306Z,99785.47
2023-03-30T03:40:35.780Z,99782.25
2023-03-30T03:43:37.782Z,99779.50
2023-03-30T03:46:43.121Z,99759.19
2023-03-30T03:49:45.006Z,99730.97
2023-03-30T03:52:47.179Z,99709.16
2023-03-30T03:55:49.184Z,99717.44
2023-03-30T03:58:55.924Z,99704.16
2023-03-30T04:01:59.560Z,99705.97
2023-03-30T04:05:01.687Z,99694.75
2023-03-30T04:08:03.493Z,99706.09
2023-03-30T04:11:08.092Z,99697.88
2023-03-30T04:14:45.472Z,99673.31
2023-03-30T04:18:31.496Z,99671.19
2023-03-30T04:21:53.301Z,99667.03
2023-03-30T04:25:25.809Z,99659.19
2023-03-30T04:28:47.142Z,99654.69
2023-03-30T04:32:20.614Z,99634.44
2023-03-30T04:35:50.917Z,99629.94
2023-03-30T04:39:23.982Z,99637.69
2023-03-30T04:43:02.369Z,99646.19
2023-03-30T04:46:13.963Z,99648.81
2023-03-30T04:49:42.266Z,99657.75
2023-03-30T04:53:16.311Z,99667.69
2023-03-30T04:56:41.605Z,99679.81
2023-03-30T04:59:52.939Z,99670.25
2023-03-30T05:03:28.218Z,99666.41
2023-03-30T05:06:30.272Z,99677.41
2023-03-30T05:09:55.237Z,99677.31
2023-03-30T05:13:15.875Z,99689.34
2023-03-30T05:16:27.820Z,99685.38
2023-03-30T05:19:58.724Z,99692.91
2023-03-30T05:23:09.845Z,99694.66
2023-03-30T05:26:39.406Z,99701.59
2023-03-30T05:30:08.608Z,99721.91
2023-03-30T05:33:34.062Z,99715.84
2023-03-30T05:36:57.193Z,99740.16
2023-03-30T05:40:11.832Z,99749.91
2023-03-30T05:43:21.872Z,99760.19
2023-03-30T05:46:29.951Z,99782.81
2023-03-30T05:49:59.130Z,99800.31
2023-03-30T05:53:21.537Z,99848.75
2023-03-30T05:56:42.630Z,99882.31
2023-03-30T06:03:42.725Z,99910.50
2023-03-30T06:06:45.905Z,99906.97
2023-03-30T06:09:48.182Z,99899.97
2023-03-30T06:12:57.917Z,99895.22
2023-03-30T06:16:12.251Z,99911.69
2023-03-30T06:19:18.253Z,99892.88
2023-03-30T06:22:21.581Z,99873.13
2023-03-30T06:25:35.928Z,99861.25
2023-03-30T06:28:38.267Z,99876.13
2023-03-30T06:31:42.376Z,99888.31
2023-03-30T06:35:17.021Z,99895.53
2023-03-30T06:38:20.482Z,99904.22
2023-03-30T06:41:22.495Z,99898.41
2023-03-30T06:44:25.121Z,99870.06
2023-03-30T06:47:28.350Z,99849.69
2023-03-30T06:50:34.843Z,99853.59
2023-03-30T06:53:41.604Z,99840.84
2023-03-30T06:56:43.786Z,99838.72
2023-03-30T06:59:49.374Z,99829.66
2023-03-30T07:03:25.397Z,99851.50
2023-03-30T07:06:52.415Z,99860.34
2023-03-30T07:09:54.207Z,99844.47
2023-03-30T07:12:57.822Z,99828.00
2023-03-30T07:16:00.095Z,99823.31
2023-03-30T07:19:03.378Z,99816.78
2023-03-30T07:22:05.164Z,99820.34
2023-03-30T07:25:09.081Z,99812.44
2023-03-30T07:28:11.008Z,99821.88
2023-03-30T07:31:14.316Z,99825.66
2023-03-30T07:34:19.227Z,99811.38
2023-03-30T07:37:28.914Z,99819.16
2023-03-30T07:40:31.264Z,99795.66
2023-03-30T07:43:33.513Z,99786.31
2023-03-30T07:46:36.477Z,99756.31
2023-03-30T07:49:39.740Z,99770.06
2023-03-30T07:52:41.792Z,99756.06
2023-03-30T07:55:45.900Z,99748.41
2023-03-30T07:58:57.152Z,99769.78
2023-03-30T08:02:05.613Z,99796.13
2023-03-30T08:05:29.555Z,99788.38
2023-03-30T08:08:49.846Z,99785.84
2023-03-30T08:11:51.922Z,99770.50
2023-03-30T08:14:55.640Z,99787.88
2023-03-30T08:17:58.107Z,99782.72
2023-03-30T08:21:02.159Z,99776.59
2023-03-30T08:24:04.791Z,99777.63
2023-03-30T08:27:08.056Z,99786.81
2023-03-30T08:30:13.134Z,99798.97
2023-03-30T08:33:15.890Z,99797.75
2023-03-30T08:36:21.444Z,99806.44
2023-03-30T08:39:24.349Z,99810.69
2023-03-30T08:43:07.868Z,99814.13
2023-03-30T08:46:14.474Z,99813.13
2023-03-30T08:49:19.487Z,99803.81
2023-03-30T08:52:25.388Z,99810.59
2023-03-30T08:55:34.950Z,99813.72
2023-03-30T08:58:45.508Z,99826.91
2023-03-30T09:01:53.522Z,99825.84
2023-03-30T09:05:01.937Z,99822.66
2023-03-30T09:08:16.918Z,99830.81
2023-03-30T09:11:33.325Z,99853.97
2023-03-30T09:14:43.725Z,99851.69
2023-03-30T09:17:48.933Z,99848.03
2023-03-30T09:20:52.869Z,99836.19
2023-03-30T09:23:59.041Z,99804.59
2023-03-30T09:27:05.731Z,99840.38
2023-03-30T09:30:18.284Z,99861.16
2023-03-30T09:33:32.166Z,99858.06
2023-03-30T09:36:39.546Z,99847.53
2023-03-30T09:39:43.292Z,99829.53
2023-03-30T09:42:51.437Z,99824.03
2023-03-30T09:45:53.515Z,99824.28
2023-03-30T09:49:12.603Z,99831.50
2023-03-30T09:52:21.862Z,99828.72
2023-03-30T09:55:30.397Z,99823.44
2023-03-30T09:58:34.298Z,99831.72
2023-03-30T10:01:40.905Z,99821.28
2023-03-30T10:05:06.221Z,99827.91
2023-03-30T10:08:22.928Z,99834.22
2023-03-30T10:11:36.530Z,99832.50
2023-03-30T10:14:38.504Z,99842.03
2023-03-30T10:17:46.987Z,99845.44
2023-03-30T10:20:51.953Z,99830.91
2023-03-30T10:24:01.438Z,99824.84
2023-03-30T10:27:12.216Z,99816.09
2023-03-30T10:30:23.378Z,99833.59
2023-03-30T10:33:27.412Z,99836.03
2023-03-30T10:36:37.253Z,99828.81
2023-03-30T10:39:41.863Z,99816.41
2023-03-30T10:42:46.720Z,99822.91
2023-03-30T10:45:50.816Z,99825.06
2023-03-30T10:49:06.582Z,99819.81
2023-03-30T10:52:18.277Z,99823.09
2023-03-30T10:55:25.460Z,99819.75
2023-03-30T10:58:44.083Z,99820.59
2023-03-30T11:02:00.452Z,99817.53
2023-03-30T11:05:07.510Z,99823.16
2023-03-30T11:08:15.228Z,99821.94
2023-03-30T11:11:21.176Z,99825.44
2023-03-30T11:14:40.250Z,99822.81
2023-03-30T11:17:51.074Z,99829.53
2023-03-30T11:20:59.133Z,99832.31
2023-03-30T11:24:06.992Z,99828.75
2023-03-30T11:27:22.561Z,99843.00
2023-03-30T11:30:29.534Z,99831.06
2023-03-30T11:33:38.905Z,99832.78
2023-03-30T11:36:48.648Z,99832.75
2023-03-30T11:39:56.837Z,99826.59
2023-03-30T11:43:01.620Z,99842.63
2023-03-30T11:46:10.108Z,99834.81
2023-03-30T11:49:31.357Z,99838.09
2023-03-30T11:52:41.389Z,99827.88
2023-03-30T11:55:54.932Z,99830.81
2023-03-30T11:59:05.216Z,99840.44
2023-03-30T12:02:18.014Z,99815.88
2023-03-30T12:05:28.508Z,99822.22
2023-03-30T12:08:51.790Z,99811.34
2023-03-30T12:12:03.939Z,99812.56
2023-03-30T12:15:34.744Z,99789.81
2023-03-30T12:18:43.339Z,99807.16
2023-03-30T12:21:55.013Z,99803.72
2023-03-30T12:25:05.452Z,99816.63
2023-03-30T12:28:17.815Z,99836.66
2023-03-30T12:31:21.249Z,99831.78
2023-03-30T12:34:29.782Z,99817.56
2023-03-30T12:37:34.961Z,99799.41
2023-03-30T12:40:38.096Z,99794.84
2023-03-30T12:43:57.873Z,99776.44
2023-03-30T12:47:14.014Z,99774.09
2023-03-30T12:50:31.976Z,99769.75
2023-03-30T12:57:37.541Z,99750.31
2023-03-30T13:01:04.486Z,99751.06
2023-03-30T13:04:09.029Z,99755.72
2023-03-30T13:07:15.905Z,99748.34
2023-03-30T13:10:39.375Z,99759.09
2023-03-30T13:13:50.559Z,99764.69
2023-03-30T13:17:14.712Z,99746.84
2023-03-30T13:20:30.001Z,99771.09
2023-03-30T13:23:39.924Z,99766.06
2023-03-30T13:26:44.574Z,99754.81
2023-03-30T13:29:49.218Z,99769.72
2023-03-30T13:33:01.001Z,99748.31
2023-03-30T13:36:09.674Z,99768.78
2023-03-30T13:39:23.466Z,99760.56
2023-03-30T13:42:46.082Z,99769.41
2023-03-30T13:46:00.320Z,99766.56
2023-03-30T13:49:40.013Z,99765.81
2023-03-30T13:52:46.606Z,99763.47
2023-03-30T13:55:51.060Z,99757.81
2023-03-30T13:59:03.421Z,99766.00
2023-03-30T14:02:13.677Z,99747.91
2023-03-30T14:05:20.645Z,99743.47
2023-03-30T14:08:23.537Z,99766.53
2023-03-30T14:11:33.615Z,99754.44
2023-03-30T14:14:39.043Z,99750.00
2023-03-30T14:17:44.455Z,99741.28
2023-03-30T14:20:49.396Z,99777.81
2023-03-30T14:23:54.311Z,99752.75
2023-03-30T14:27:03.917Z,99754.16
2023-03-30T14:30:19.008Z,99756.56
2023-03-30T14:33:21.905Z,99754.59
2023-03-30T14:36:23.802Z,99776.72
2023-03-30T14:39:26.576Z,99812.25
2023-03-30T14:42:34.008Z,99837.09
2023-03-30T14:45:37.825Z,99827.25
2023-03-30T14:48:42.630Z,99826.94
2023-03-30T14:51:47.798Z,99805.13
2023-03-30T14:55:05.183Z,99802.25
2023-03-30T14:58:14.860Z,99800.00
2023-03-30T15:01:25.786Z,99800.59
2023-03-30T15:04:34.252Z,99812.03
2023-03-30T15:07:37.048Z,99803.28
2023-03-30T15:10:45.306Z,99801.03
2023-03-30T15:13:51.876Z,99797.78
2023-03-30T15:16:57.179Z,99788.09
2023-03-30T15:20:02.641Z,99787.78
2023-03-30T15:23:04.784Z,99781.56
2023-03-30T15:26:07.754Z,99779.56
2023-03-30T15:29:12.289Z,99792.09
2023-03-30T15:32:18.490Z,99789.66
2023-03-30T15:35:23.690Z,99790.78
2023-03-30T15:38:43.839Z,99787.09
2023-03-30T15:42:01.693Z,99796.19
2023-03-30T15:45:10.949Z,99795.03
2023-03-30T15:48:13.190Z,99782.44
2023-03-30T15:51:28.292Z,99782.28
2023-03-30T15:54:38.408Z,99779.03
2023-03-30T15:57:44.286Z,99790.38
2023-03-30T16:00:48.311Z,99790.94
2023-03-30T16:03:55.298Z,99780.16
2023-03-30T16:06:57.482Z,99780.88
2023-03-30T16:09:59.558Z,99784.81
2023-03-30T16:13:02.060Z,99783.22
2023-03-30T16:16:07.189Z,99773.63
2023-03-30T16:19:10.895Z,99783.53
2023-03-30T16:22:14.568Z,99792.56
2023-03-30T16:25:23.254Z,99809.78
2023-03-30T16:28:31.948Z,99795.50
2023-03-30T16:31:35.433Z,99814.00
2023-03-30T16:34:37.100Z,99810.50
2023-03-30T16:37:39.197Z,99821.34
2023-03-30T16:40:46.550Z,99827.84
2023-03-30T16:43:56.880Z,99841.22
2023-03-30T16:47:01.020Z,99837.03
2023-03-30T16:50:19.074Z,99837.63
2023-03-30T16:53:20.760Z,99840.03
2023-03-30T16:56:23.426Z,99872.81
2023-03-30T16:59:33.555Z,99858.44
2023-03-30T17:02:36.928Z,99863.06
2023-03-30T17:05:39.330Z,99854.16
2023-03-30T17:08:43.057Z,99840.34
2023-03-30T17:11:46.248Z,99831.78
2023-03-30T17:14:47.973Z,99829.84
2023-03-30T17:17:52.229Z,99817.53
2023-03-30T17:20:55.331Z,99826.41
2023-03-30T17:23:57.886Z,99825.94
2023-03-30T17:27:00.160Z,99824.09
2023-03-30T17:30:02.000Z,99834.94
2023-03-30T17:33:12.809Z,99839.56
2023-03-30T17:36:22.986Z,99840.97
2023-03-30T17:39:24.980Z,99838.72
2023-03-30T17:42:26.745Z,99843.44
2023-03-30T17:45:29.266Z,99831.66
2023-03-30T17:48:32.455Z,99828.22
2023-03-30T17:51:34.307Z,99832.16
2023-03-30T17:54:36.752Z,99835.16
2023-03-30T17:57:39.898Z,99838.16
2023-03-30T18:00:42.097Z,99828.28
2023-03-30T18:03:46.425Z,99834.25
2023-03-30T18:06:48.959Z,99838.91
2023-03-30T18:09:51.379Z,99842.34
2023-03-30T18:12:54.986Z,99842.25
2023-03-30T18:15:58.709Z,99843.31
2023-03-30T18:19:02.978Z,99851.28
2023-03-30T18:22:31.457Z,99856.31
2023-03-30T18:25:37.625Z,99886.38
2023-03-30T18:28:46.401Z,99878.53
2023-03-30T18:31:49.025Z,99876.25
2023-03-30T18:34:52.372Z,99880.47
2023-03-30T18:37:58.833Z,99874.34
2023-03-30T18:41:01.548Z,99859.16
2023-03-30T18:44:03.457Z,99868.25
2023-03-30T18:47:11.789Z,99875.38
2023-03-30T18:50:19.874Z,99873.06
2023-03-30T18:53:23.657Z,99886.72
2023-03-30T18:56:27.455Z,99889.25
2023-03-30T18:59:29.624Z,99932.63
2023-03-30T19:02:31.474Z,99929.59
2023-03-30T19:05:40.899Z,99925.34
2023-03-30T19:08:43.615Z,99921.31
2023-03-30T19:11:46.422Z,99932.81
2023-03-30T19:14:54.326Z,99943.06
2023-03-30T19:17:56.747Z,99943.84
2023-03-30T19:21:02.877Z,99913.00
2023-03-30T19:24:09.999Z,99896.16
2023-03-30T19:27:12.330Z,99892.13
2023-03-30T19:30:17.330Z,99894.03
2023-03-30T19:33:23.726Z,99897.91
2023-03-30T19:36:27.320Z,99902.59
2023-03-30T19:39:29.006Z,99911.69
2023-03-30T19:42:35.637Z,99911.88
2023-03-30T19:45:38.142Z,99915.72
2023-03-30T19:48:40.308Z,99918.00
2023-03-30T19:51:43.779Z,99912.19
2023-03-30T19:54:45.829Z,99910.09
2023-03-30T19:57:47.706Z,99903.31
2023-03-30T20:00:50.654Z,99895.19
2023-03-30T20:03:53.808Z,99898.53
2023-03-30T20:06:59.932Z,99888.38
2023-03-30T20:10:02.423Z,99882.69
2023-03-30T20:13:06.252Z,99878.94
2023-03-30T20:16:09.328Z,99875.69
2023-03-30T20:19:28.550Z,99872.63
2023-03-30T20:22:32.703Z,99865.00
2023-03-30T20:25:34.797Z,99861.50
2023-03-30T20:28:37.912Z,99866.59
2023-03-30T20:31:41.191Z,99863.19
2023-03-30T20:34:45.818Z,99858.59
2023-03-30T20:37:49.046Z,99859.78
2023-03-30T20:40:56.002Z,99860.19
2023-03-30T20:43:58.025Z,99851.94
2023-03-30T20:46:59.958Z,99851.63
2023-03-30T20:50:01.697Z,99846.38
2023-03-30T20:53:26.608Z,99851.09
2023-03-30T20:56:29.106Z,99869.00
2023-03-30T20:59:31.972Z,99875.03
2023-03-30T21:02:34.230Z,99882.91
2023-03-30T21:05:36.200Z,99883.72
2023-03-30T21:08:40.774Z,99873.94
2023-03-30T21:11:42.707Z,99868.19
2023-03-30T21:14:45.859Z,99858.03
2023-03-30T21:17:49.750Z,99853.75
2023-03-30T21:20:53.272Z,99828.19
2023-03-30T21:23:57.542Z,99825.06
2023-03-30T21:26:59.654Z,99821.69
2023-03-30T21:30:01.938Z,99822.47
2023-03-30T21:33:03.956Z,99827.63
2023-03-30T21:36:07.094Z,99820.69
2023-03-30T21:39:10.589Z,99814.75
2023-03-30T21:42:12.326Z,99802.44
2023-03-30T21:45:15.221Z,99795.50
2023-03-30T21:48:17.164Z,99792.38
2023-03-30T21:51:20.673Z,99790.53
2023-03-30T21:54:27.841Z,99775.41
2023-03-30T21:57:30.318Z,99765.88
2023-03-30T22:00:32.624Z,99748.88
2023-03-30T22:03:35.090Z,99755.91
2023-03-30T22:06:37.014Z,99756.44
2023-03-30T22:09:40.568Z,99749.88
2023-03-30T22:12:42.552Z,99744.50
2023-03-30T22:15:55.993Z,99748.97
2023-03-30T22:18:58.343Z,99743.09
2023-03-30T22:22:00.396Z,99745.56
2023-03-30T22:25:04.647Z,99751.63
2023-03-30T22:28:08.718Z,99745.16
2023-03-30T22:31:12.352Z,99738.63
2023-03-30T22:37:34.946Z,99728.94
2023-03-30T22:40:41.727Z,99721.88
2023-03-30T22:43:43.597Z,99715.94
2023-03-30T22:46:45.644Z,99711.16
2023-03-30T22:49:47.526Z,99706.63
2023-03-30T22:52:49.484Z,99689.66
2023-03-30T22:56:01.951Z,99689.94
2023-03-30T22:59:04.206Z,99694.69
2023-03-30T23:02:06.072Z,99681.47
2023-03-30T23:05:08.830Z,99679.88
2023-03-30T23:08:12.287Z,99685.28
2023-03-30T23:11:17.208Z,99682.28
2023-03-30T23:14:26.872Z,99678.69
2023-03-30T23:17:30.264Z,99673.84
2023-03-30T23:20:32.019Z,99666.31
2023-03-30T23:23:34.290Z,99664.22
2023-03-30T23:26:37.909Z,99657.50
2023-03-30T23:29:45.716Z,99659.72
2023-03-30T23:32:49.937Z,99647.53
2023-03-30T23:35:53.233Z,99642.00
2023-03-30T23:38:56.062Z,99636.03
2023-03-30T23:41:59.298Z,99628.84
2023-03-30T23:45:03.763Z,99619.56
2023-03-30T23:48:06.937Z,99620.47
2023-03-30T23:51:09.731Z,99614.84
2023-03-30T23:54:11.905Z,99621.63
2023-03-30T23:57:15.023Z,99606.31
